Torreon, Mexico

7:47 AM CDT on October 25, 2014 (GMT -0500)
Torreon International | Change Station
CLOSE
Current Station
Airport
Location: Torreon,
Elevation: 3688 ft
Nearby Weather Stations

Elev 3688 ft 25.53 °N, 103.45 °W | Updated 1 hour ago

Clear
Clear
61 °F
Feels Like 61 °F
N
0
Wind Variable Wind from North

Today
High -- | Low -- °F
--% Chance of Precip.
Yesterday
High -- | Low -- °F
Precip. -- in
7:57 AM 7:17 PM
Waxing Crescent, 3% visible
Pressure 30.00 in
Visibility 10.0 miles
Clouds Clear
Dew Point 54 °F
Humidity 77%
Rainfall 0.00 in
Snow Depth Not available.
UV 0 out of 12
Pollen Not available.
Air Quality Not available.
Flu Activity Not available.
METAR MMTC 251140Z 00000KT 10SM SKC 16/12 A3022 RMK SLP159 5//// 953 HZY ISOL SC

More Conditions Fewer Conditions

Pressure 30.00 in
Visibility 10.0 miles
Clouds Clear
Dew Point 54 °F
Humidity 77%
Rainfall 0.00 in
Snow Depth Not available.
UV 0 out of 12
Pollen Not available.
Air Quality Not available.
Flu Activity Not available.
METAR MMTC 251140Z 00000KT 10SM SKC 16/12 A3022 RMK SLP159 5//// 953 HZY ISOL SC

More Conditions Fewer Conditions

10-Day Weather Forecast

Almanac

Astronomy

Oct. 25, 2014 Rise Set
Actual Time 7:57 AM CDT 7:17 PM CDT
Civil Twilight 7:34 AM CDT 7:41 PM CDT
Nautical Twilight 7:07 AM CDT 8:07 PM CDT
Astronomical Twilight 6:40 AM CDT 8:34 PM CDT
Moon 9:31 AM CDT 8:50 PM CDT
Length of Visible Light 12h 06m
Length of Day
11h 19m
Tomorrow will be 1m 22s shorter.
Waxing Crescent, 3% of the Moon is Illuminated
Today
Waxing Crescent
Oct 30
First Quarter
Nov 6
Full
Nov 14
Last Quarter
Nov 22
New

Yesterday's Extremes

Country Highs Country Lows

Community

WunderPhotos

Upload Photos

1,764,821 photos uploaded!

Nearby

Snow Depth

Not available.

Earthquake Activity

City Distance Mag. Time & Date
No recent earthquake activity has been reported nearby.
Minimum magnitude displayed is 2.5.

Coastal Water Temperatures

Place Temperature
No Stations Reporting

Nearby Weather Stations